sensor_id;sensor_type;location;lat;lon;timestamp;P1;durP1;ratioP1;P2;durP2;ratioP2
41755;SDS011;27435;48.480;9.258;2022-07-23T00:01:31;12.07;;;6.10;;
41755;SDS011;27435;48.480;9.258;2022-07-23T00:03:57;7.07;;;4.82;;
41755;SDS011;27435;48.480;9.258;2022-07-23T00:06:23;8.65;;;5.93;;
41755;SDS011;27435;48.480;9.258;2022-07-23T00:08:52;14.52;;;6.35;;
41755;SDS011;27435;48.480;9.258;2022-07-23T00:11:18;7.93;;;6.32;;
41755;SDS011;27435;48.480;9.258;2022-07-23T00:13:44;9.35;;;5.53;;
41755;SDS011;27435;48.480;9.258;2022-07-23T00:16:10;7.45;;;5.28;;
41755;SDS011;27435;48.480;9.258;2022-07-23T00:18:36;8.85;;;5.53;;
41755;SDS011;27435;48.480;9.258;2022-07-23T00:21:01;7.15;;;5.35;;
41755;SDS011;27435;48.480;9.258;2022-07-23T00:23:27;7.22;;;4.85;;
41755;SDS011;27435;48.480;9.258;2022-07-23T00:25:54;6.28;;;4.68;;
41755;SDS011;27435;48.480;9.258;2022-07-23T00:28:20;7.35;;;5.25;;
41755;SDS011;27435;48.480;9.258;2022-07-23T00:30:46;7.25;;;5.30;;
41755;SDS011;27435;48.480;9.258;2022-07-23T00:33:12;8.18;;;4.75;;
41755;SDS011;27435;48.480;9.258;2022-07-23T00:35:38;7.07;;;5.18;;
41755;SDS011;27435;48.480;9.258;2022-07-23T00:38:06;8.07;;;5.07;;
41755;SDS011;27435;48.480;9.258;2022-07-23T00:40:32;7.28;;;4.82;;
41755;SDS011;27435;48.480;9.258;2022-07-23T00:42:58;10.43;;;5.05;;
41755;SDS011;27435;48.480;9.258;2022-07-23T00:45:25;10.68;;;5.20;;
41755;SDS011;27435;48.480;9.258;2022-07-23T00:47:51;11.13;;;5.47;;
41755;SDS011;27435;48.480;9.258;2022-07-23T00:50:17;6.80;;;4.85;;
41755;SDS011;27435;48.480;9.258;2022-07-23T00:52:43;6.97;;;5.22;;
41755;SDS011;27435;48.480;9.258;2022-07-23T00:55:10;7.68;;;4.95;;
41755;SDS011;27435;48.480;9.258;2022-07-23T00:57:36;7.68;;;4.95;;
41755;SDS011;27435;48.480;9.258;2022-07-23T01:00:04;5.93;;;4.45;;
41755;SDS011;27435;48.480;9.258;2022-07-23T01:02:32;6.63;;;4.72;;
41755;SDS011;27435;48.480;9.258;2022-07-23T01:04:58;8.43;;;4.60;;
41755;SDS011;27435;48.480;9.258;2022-07-23T01:07:23;7.38;;;5.13;;
41755;SDS011;27435;48.480;9.258;2022-07-23T01:09:50;7.25;;;4.85;;
41755;SDS011;27435;48.480;9.258;2022-07-23T01:12:17;8.65;;;4.60;;
41755;SDS011;27435;48.480;9.258;2022-07-23T01:14:43;6.97;;;4.78;;
41755;SDS011;27435;48.480;9.258;2022-07-23T01:17:08;8.63;;;5.15;;
41755;SDS011;27435;48.480;9.258;2022-07-23T01:19:34;7.95;;;5.00;;
41755;SDS011;27435;48.480;9.258;2022-07-23T01:22:02;6.22;;;5.07;;
41755;SDS011;27435;48.480;9.258;2022-07-23T01:24:28;6.35;;;4.88;;
41755;SDS011;27435;48.480;9.258;2022-07-23T01:26:54;7.30;;;5.07;;
41755;SDS011;27435;48.480;9.258;2022-07-23T01:29:19;7.65;;;5.32;;
41755;SDS011;27435;48.480;9.258;2022-07-23T01:31:46;9.43;;;5.60;;
41755;SDS011;27435;48.480;9.258;2022-07-23T01:34:12;6.82;;;4.75;;
41755;SDS011;27435;48.480;9.258;2022-07-23T01:36:38;8.98;;;5.43;;
41755;SDS011;27435;48.480;9.258;2022-07-23T01:39:04;7.90;;;5.47;;
41755;SDS011;27435;48.480;9.258;2022-07-23T01:41:31;5.95;;;4.43;;
41755;SDS011;27435;48.480;9.258;2022-07-23T01:43:56;6.55;;;5.05;;
41755;SDS011;27435;48.480;9.258;2022-07-23T01:46:22;7.97;;;5.30;;
41755;SDS011;27435;48.480;9.258;2022-07-23T01:48:47;10.65;;;5.13;;
41755;SDS011;27435;48.480;9.258;2022-07-23T01:51:14;6.38;;;4.90;;
41755;SDS011;27435;48.480;9.258;2022-07-23T01:53:39;6.57;;;4.38;;
41755;SDS011;27435;48.480;9.258;2022-07-23T01:56:05;8.40;;;4.80;;
41755;SDS011;27435;48.480;9.258;2022-07-23T01:58:31;6.82;;;4.43;;
41755;SDS011;27435;48.480;9.258;2022-07-23T02:00:57;7.22;;;4.75;;
41755;SDS011;27435;48.480;9.258;2022-07-23T02:03:23;6.05;;;4.55;;
41755;SDS011;27435;48.480;9.258;2022-07-23T02:05:48;5.70;;;4.30;;
41755;SDS011;27435;48.480;9.258;2022-07-23T02:08:14;6.50;;;4.18;;
41755;SDS011;27435;48.480;9.258;2022-07-23T02:10:40;7.45;;;4.40;;
41755;SDS011;27435;48.480;9.258;2022-07-23T02:13:06;6.60;;;4.65;;
41755;SDS011;27435;48.480;9.258;2022-07-23T02:15:31;6.90;;;4.55;;
41755;SDS011;27435;48.480;9.258;2022-07-23T02:17:57;7.38;;;4.18;;
41755;SDS011;27435;48.480;9.258;2022-07-23T02:20:23;6.60;;;4.15;;
41755;SDS011;27435;48.480;9.258;2022-07-23T02:22:49;7.72;;;4.47;;
41755;SDS011;27435;48.480;9.258;2022-07-23T02:25:15;6.88;;;4.43;;
41755;SDS011;27435;48.480;9.258;2022-07-23T02:27:41;7.10;;;4.32;;
41755;SDS011;27435;48.480;9.258;2022-07-23T02:30:06;4.95;;;4.00;;
41755;SDS011;27435;48.480;9.258;2022-07-23T02:32:33;7.53;;;4.43;;
41755;SDS011;27435;48.480;9.258;2022-07-23T02:34:59;6.95;;;5.00;;
41755;SDS011;27435;48.480;9.258;2022-07-23T02:37:25;6.75;;;4.80;;
41755;SDS011;27435;48.480;9.258;2022-07-23T02:39:51;6.75;;;4.35;;
41755;SDS011;27435;48.480;9.258;2022-07-23T02:42:16;6.30;;;4.40;;
41755;SDS011;27435;48.480;9.258;2022-07-23T02:44:42;6.63;;;4.93;;
41755;SDS011;27435;48.480;9.258;2022-07-23T02:47:08;7.63;;;5.28;;
41755;SDS011;27435;48.480;9.258;2022-07-23T02:49:34;7.90;;;5.03;;
41755;SDS011;27435;48.480;9.258;2022-07-23T02:51:59;9.45;;;4.93;;
41755;SDS011;27435;48.480;9.258;2022-07-23T02:54:25;6.07;;;4.70;;
41755;SDS011;27435;48.480;9.258;2022-07-23T02:56:51;8.55;;;4.70;;
41755;SDS011;27435;48.480;9.258;2022-07-23T02:59:17;9.73;;;5.20;;
41755;SDS011;27435;48.480;9.258;2022-07-23T03:01:43;8.35;;;5.22;;
41755;SDS011;27435;48.480;9.258;2022-07-23T03:04:09;10.98;;;5.35;;
41755;SDS011;27435;48.480;9.258;2022-07-23T03:06:35;9.00;;;5.20;;
41755;SDS011;27435;48.480;9.258;2022-07-23T03:09:01;6.50;;;5.22;;
41755;SDS011;27435;48.480;9.258;2022-07-23T03:11:27;8.23;;;5.35;;
41755;SDS011;27435;48.480;9.258;2022-07-23T03:13:52;10.00;;;4.95;;
41755;SDS011;27435;48.480;9.258;2022-07-23T03:16:18;7.07;;;5.25;;
41755;SDS011;27435;48.480;9.258;2022-07-23T03:18:44;11.10;;;5.05;;
41755;SDS011;27435;48.480;9.258;2022-07-23T03:21:09;9.85;;;5.20;;
41755;SDS011;27435;48.480;9.258;2022-07-23T03:23:35;8.43;;;5.30;;
41755;SDS011;27435;48.480;9.258;2022-07-23T03:26:01;7.53;;;5.53;;
41755;SDS011;27435;48.480;9.258;2022-07-23T03:28:26;9.15;;;5.93;;
41755;SDS011;27435;48.480;9.258;2022-07-23T03:30:52;8.60;;;6.20;;
41755;SDS011;27435;48.480;9.258;2022-07-23T03:33:18;7.43;;;5.25;;
41755;SDS011;27435;48.480;9.258;2022-07-23T03:35:45;7.93;;;6.00;;
41755;SDS011;27435;48.480;9.258;2022-07-23T03:38:12;7.43;;;5.55;;
41755;SDS011;27435;48.480;9.258;2022-07-23T03:40:38;9.10;;;5.68;;
41755;SDS011;27435;48.480;9.258;2022-07-23T03:43:04;12.00;;;6.90;;
41755;SDS011;27435;48.480;9.258;2022-07-23T03:45:29;10.43;;;6.53;;
41755;SDS011;27435;48.480;9.258;2022-07-23T03:47:56;7.20;;;6.35;;
41755;SDS011;27435;48.480;9.258;2022-07-23T03:50:21;11.45;;;8.10;;
41755;SDS011;27435;48.480;9.258;2022-07-23T03:52:47;12.10;;;8.05;;
41755;SDS011;27435;48.480;9.258;2022-07-23T03:55:13;10.23;;;6.80;;
41755;SDS011;27435;48.480;9.258;2022-07-23T03:57:39;11.43;;;6.28;;
41755;SDS011;27435;48.480;9.258;2022-07-23T04:00:06;9.43;;;5.68;;
41755;SDS011;27435;48.480;9.258;2022-07-23T04:02:33;7.57;;;5.78;;
41755;SDS011;27435;48.480;9.258;2022-07-23T04:04:59;8.43;;;6.13;;
41755;SDS011;27435;48.480;9.258;2022-07-23T04:07:25;9.73;;;5.68;;
41755;SDS011;27435;48.480;9.258;2022-07-23T04:09:51;7.80;;;6.03;;
41755;SDS011;27435;48.480;9.258;2022-07-23T04:12:17;9.55;;;6.03;;
41755;SDS011;27435;48.480;9.258;2022-07-23T04:14:42;12.98;;;7.32;;
41755;SDS011;27435;48.480;9.258;2022-07-23T04:17:08;10.30;;;6.15;;
41755;SDS011;27435;48.480;9.258;2022-07-23T04:19:34;10.15;;;5.97;;
41755;SDS011;27435;48.480;9.258;2022-07-23T04:22:04;9.10;;;5.45;;
41755;SDS011;27435;48.480;9.258;2022-07-23T04:24:30;10.88;;;6.20;;
41755;SDS011;27435;48.480;9.258;2022-07-23T04:26:56;9.52;;;6.10;;
41755;SDS011;27435;48.480;9.258;2022-07-23T04:29:22;8.73;;;6.72;;
41755;SDS011;27435;48.480;9.258;2022-07-23T04:31:48;8.23;;;5.95;;
41755;SDS011;27435;48.480;9.258;2022-07-23T04:34:14;9.55;;;6.18;;
41755;SDS011;27435;48.480;9.258;2022-07-23T04:36:39;8.85;;;6.82;;
41755;SDS011;27435;48.480;9.258;2022-07-23T04:39:05;10.07;;;6.30;;
41755;SDS011;27435;48.480;9.258;2022-07-23T04:41:31;11.30;;;6.18;;
41755;SDS011;27435;48.480;9.258;2022-07-23T04:43:57;7.78;;;5.90;;
41755;SDS011;27435;48.480;9.258;2022-07-23T04:46:23;9.13;;;5.90;;
41755;SDS011;27435;48.480;9.258;2022-07-23T04:48:48;8.68;;;6.28;;
41755;SDS011;27435;48.480;9.258;2022-07-23T04:51:14;8.60;;;5.63;;
41755;SDS011;27435;48.480;9.258;2022-07-23T04:53:40;11.23;;;6.85;;
41755;SDS011;27435;48.480;9.258;2022-07-23T04:56:06;10.25;;;6.47;;
41755;SDS011;27435;48.480;9.258;2022-07-23T04:58:32;8.82;;;6.40;;
41755;SDS011;27435;48.480;9.258;2022-07-23T05:00:58;8.77;;;6.63;;
41755;SDS011;27435;48.480;9.258;2022-07-23T05:03:23;8.48;;;6.35;;
41755;SDS011;27435;48.480;9.258;2022-07-23T05:05:49;10.27;;;5.90;;
41755;SDS011;27435;48.480;9.258;2022-07-23T05:08:15;8.88;;;6.88;;
41755;SDS011;27435;48.480;9.258;2022-07-23T05:10:41;7.90;;;5.70;;
41755;SDS011;27435;48.480;9.258;2022-07-23T05:13:06;9.13;;;6.13;;
41755;SDS011;27435;48.480;9.258;2022-07-23T05:15:32;9.10;;;6.05;;
41755;SDS011;27435;48.480;9.258;2022-07-23T05:17:58;9.90;;;5.93;;
41755;SDS011;27435;48.480;9.258;2022-07-23T05:20:23;10.60;;;5.95;;
41755;SDS011;27435;48.480;9.258;2022-07-23T05:22:49;10.68;;;5.72;;
41755;SDS011;27435;48.480;9.258;2022-07-23T05:25:15;8.02;;;6.05;;
41755;SDS011;27435;48.480;9.258;2022-07-23T05:27:40;9.27;;;5.88;;
41755;SDS011;27435;48.480;9.258;2022-07-23T05:30:06;9.25;;;5.82;;
41755;SDS011;27435;48.480;9.258;2022-07-23T05:32:32;10.82;;;5.97;;
41755;SDS011;27435;48.480;9.258;2022-07-23T05:34:58;8.98;;;5.78;;
41755;SDS011;27435;48.480;9.258;2022-07-23T05:37:24;8.20;;;5.72;;
41755;SDS011;27435;48.480;9.258;2022-07-23T05:39:49;10.70;;;5.30;;
41755;SDS011;27435;48.480;9.258;2022-07-23T05:42:16;7.53;;;5.32;;
41755;SDS011;27435;48.480;9.258;2022-07-23T05:44:41;9.07;;;6.00;;
41755;SDS011;27435;48.480;9.258;2022-07-23T05:47:07;9.82;;;5.95;;
41755;SDS011;27435;48.480;9.258;2022-07-23T05:49:33;9.10;;;5.40;;
41755;SDS011;27435;48.480;9.258;2022-07-23T05:52:03;7.50;;;5.20;;
41755;SDS011;27435;48.480;9.258;2022-07-23T05:54:29;7.20;;;4.85;;
41755;SDS011;27435;48.480;9.258;2022-07-23T05:56:55;6.93;;;4.93;;
41755;SDS011;27435;48.480;9.258;2022-07-23T05:59:21;7.63;;;4.75;;
41755;SDS011;27435;48.480;9.258;2022-07-23T06:01:46;7.97;;;4.90;;
41755;SDS011;27435;48.480;9.258;2022-07-23T06:04:12;7.35;;;4.72;;
41755;SDS011;27435;48.480;9.258;2022-07-23T06:06:37;6.00;;;4.57;;
41755;SDS011;27435;48.480;9.258;2022-07-23T06:09:03;6.35;;;4.50;;
41755;SDS011;27435;48.480;9.258;2022-07-23T06:11:29;7.57;;;4.85;;
41755;SDS011;27435;48.480;9.258;2022-07-23T06:13:54;8.35;;;4.93;;
41755;SDS011;27435;48.480;9.258;2022-07-23T06:16:20;9.45;;;4.88;;
41755;SDS011;27435;48.480;9.258;2022-07-23T06:18:46;6.88;;;4.30;;
41755;SDS011;27435;48.480;9.258;2022-07-23T06:21:11;6.28;;;4.15;;
41755;SDS011;27435;48.480;9.258;2022-07-23T06:23:37;9.40;;;4.22;;
41755;SDS011;27435;48.480;9.258;2022-07-23T06:26:02;6.88;;;3.70;;
41755;SDS011;27435;48.480;9.258;2022-07-23T06:28:28;6.05;;;4.05;;
41755;SDS011;27435;48.480;9.258;2022-07-23T06:30:54;5.90;;;4.10;;
41755;SDS011;27435;48.480;9.258;2022-07-23T06:33:19;7.95;;;3.85;;
41755;SDS011;27435;48.480;9.258;2022-07-23T06:35:45;4.68;;;3.85;;
41755;SDS011;27435;48.480;9.258;2022-07-23T06:38:10;10.82;;;4.70;;
41755;SDS011;27435;48.480;9.258;2022-07-23T06:40:36;5.43;;;3.60;;
41755;SDS011;27435;48.480;9.258;2022-07-23T06:43:02;6.38;;;3.97;;
41755;SDS011;27435;48.480;9.258;2022-07-23T06:45:28;6.25;;;4.05;;
41755;SDS011;27435;48.480;9.258;2022-07-23T06:47:53;6.95;;;3.40;;
41755;SDS011;27435;48.480;9.258;2022-07-23T06:50:19;5.35;;;3.75;;
41755;SDS011;27435;48.480;9.258;2022-07-23T06:52:45;6.00;;;3.72;;
41755;SDS011;27435;48.480;9.258;2022-07-23T06:55:10;4.85;;;3.67;;
41755;SDS011;27435;48.480;9.258;2022-07-23T06:57:36;5.75;;;3.22;;
41755;SDS011;27435;48.480;9.258;2022-07-23T07:00:02;6.10;;;4.00;;
41755;SDS011;27435;48.480;9.258;2022-07-23T07:02:28;5.70;;;3.80;;
41755;SDS011;27435;48.480;9.258;2022-07-23T07:04:54;6.10;;;4.20;;
41755;SDS011;27435;48.480;9.258;2022-07-23T07:07:21;5.32;;;3.35;;
41755;SDS011;27435;48.480;9.258;2022-07-23T07:09:46;4.95;;;3.20;;
41755;SDS011;27435;48.480;9.258;2022-07-23T07:12:12;10.43;;;3.90;;
41755;SDS011;27435;48.480;9.258;2022-07-23T07:14:38;8.20;;;4.05;;
41755;SDS011;27435;48.480;9.258;2022-07-23T07:17:03;5.13;;;3.92;;
41755;SDS011;27435;48.480;9.258;2022-07-23T07:19:29;6.85;;;3.80;;
41755;SDS011;27435;48.480;9.258;2022-07-23T07:21:55;7.07;;;4.28;;
41755;SDS011;27435;48.480;9.258;2022-07-23T07:24:21;5.90;;;4.30;;
41755;SDS011;27435;48.480;9.258;2022-07-23T07:26:46;7.55;;;4.22;;
41755;SDS011;27435;48.480;9.258;2022-07-23T07:29:12;5.25;;;4.05;;
41755;SDS011;27435;48.480;9.258;2022-07-23T07:31:38;6.85;;;4.55;;
41755;SDS011;27435;48.480;9.258;2022-07-23T07:34:03;6.95;;;4.20;;
41755;SDS011;27435;48.480;9.258;2022-07-23T07:36:29;6.57;;;4.40;;
41755;SDS011;27435;48.480;9.258;2022-07-23T07:38:55;7.07;;;4.50;;
41755;SDS011;27435;48.480;9.258;2022-07-23T07:41:20;9.13;;;4.57;;
41755;SDS011;27435;48.480;9.258;2022-07-23T07:43:49;8.82;;;4.45;;
41755;SDS011;27435;48.480;9.258;2022-07-23T07:46:15;6.07;;;4.10;;
41755;SDS011;27435;48.480;9.258;2022-07-23T07:48:41;8.30;;;4.57;;
41755;SDS011;27435;48.480;9.258;2022-07-23T07:51:07;7.07;;;4.78;;
41755;SDS011;27435;48.480;9.258;2022-07-23T07:53:33;6.35;;;4.88;;
41755;SDS011;27435;48.480;9.258;2022-07-23T07:55:58;7.78;;;5.38;;
41755;SDS011;27435;48.480;9.258;2022-07-23T07:58:24;7.47;;;5.20;;
41755;SDS011;27435;48.480;9.258;2022-07-23T08:00:49;6.18;;;4.80;;
41755;SDS011;27435;48.480;9.258;2022-07-23T08:03:16;7.55;;;4.97;;
41755;SDS011;27435;48.480;9.258;2022-07-23T08:05:42;7.13;;;5.18;;
41755;SDS011;27435;48.480;9.258;2022-07-23T08:08:08;7.38;;;5.03;;
41755;SDS011;27435;48.480;9.258;2022-07-23T08:10:34;8.02;;;5.40;;
41755;SDS011;27435;48.480;9.258;2022-07-23T08:13:00;6.13;;;4.38;;
41755;SDS011;27435;48.480;9.258;2022-07-23T08:15:27;6.68;;;4.95;;
41755;SDS011;27435;48.480;9.258;2022-07-23T08:17:54;7.63;;;4.60;;
41755;SDS011;27435;48.480;9.258;2022-07-23T08:20:21;7.45;;;4.40;;
41755;SDS011;27435;48.480;9.258;2022-07-23T08:25:25;6.85;;;4.55;;
41755;SDS011;27435;48.480;9.258;2022-07-23T08:27:56;5.28;;;4.20;;
41755;SDS011;27435;48.480;9.258;2022-07-23T08:30:23;6.57;;;4.22;;
41755;SDS011;27435;48.480;9.258;2022-07-23T08:32:59;6.40;;;4.10;;
41755;SDS011;27435;48.480;9.258;2022-07-23T08:35:37;6.43;;;4.60;;
41755;SDS011;27435;48.480;9.258;2022-07-23T08:38:05;5.25;;;4.07;;
41755;SDS011;27435;48.480;9.258;2022-07-23T08:40:33;5.40;;;4.13;;
41755;SDS011;27435;48.480;9.258;2022-07-23T08:43:02;6.57;;;4.18;;
41755;SDS011;27435;48.480;9.258;2022-07-23T08:45:30;5.95;;;4.18;;
41755;SDS011;27435;48.480;9.258;2022-07-23T08:48:02;7.35;;;5.07;;
41755;SDS011;27435;48.480;9.258;2022-07-23T08:50:28;5.70;;;4.50;;
41755;SDS011;27435;48.480;9.258;2022-07-23T08:52:54;6.57;;;5.03;;
41755;SDS011;27435;48.480;9.258;2022-07-23T08:55:21;7.63;;;4.93;;
41755;SDS011;27435;48.480;9.258;2022-07-23T08:57:48;7.97;;;4.55;;
41755;SDS011;27435;48.480;9.258;2022-07-23T09:00:15;7.22;;;4.65;;
41755;SDS011;27435;48.480;9.258;2022-07-23T09:02:42;6.35;;;4.38;;
41755;SDS011;27435;48.480;9.258;2022-07-23T09:05:10;10.27;;;4.97;;
41755;SDS011;27435;48.480;9.258;2022-07-23T09:07:37;6.75;;;4.88;;
41755;SDS011;27435;48.480;9.258;2022-07-23T09:10:10;9.27;;;5.28;;
41755;SDS011;27435;48.480;9.258;2022-07-23T09:12:36;6.13;;;4.82;;
41755;SDS011;27435;48.480;9.258;2022-07-23T09:15:09;5.93;;;4.75;;
41755;SDS011;27435;48.480;9.258;2022-07-23T09:17:39;7.35;;;5.10;;
41755;SDS011;27435;48.480;9.258;2022-07-23T09:20:10;6.80;;;4.90;;
41755;SDS011;27435;48.480;9.258;2022-07-23T09:22:38;7.43;;;5.18;;
41755;SDS011;27435;48.480;9.258;2022-07-23T09:25:15;7.75;;;5.55;;
41755;SDS011;27435;48.480;9.258;2022-07-23T09:30:18;9.02;;;5.15;;
41755;SDS011;27435;48.480;9.258;2022-07-23T09:35:44;9.73;;;5.03;;
41755;SDS011;27435;48.480;9.258;2022-07-23T09:38:11;6.65;;;4.72;;
41755;SDS011;27435;48.480;9.258;2022-07-23T09:40:36;8.07;;;4.28;;
41755;SDS011;27435;48.480;9.258;2022-07-23T09:43:02;7.88;;;4.90;;
41755;SDS011;27435;48.480;9.258;2022-07-23T09:45:28;8.48;;;5.05;;
41755;SDS011;27435;48.480;9.258;2022-07-23T09:48:09;7.13;;;4.95;;
41755;SDS011;27435;48.480;9.258;2022-07-23T09:50:37;7.63;;;5.18;;
41755;SDS011;27435;48.480;9.258;2022-07-23T09:53:02;8.02;;;5.18;;
41755;SDS011;27435;48.480;9.258;2022-07-23T09:55:32;6.55;;;5.07;;
41755;SDS011;27435;48.480;9.258;2022-07-23T09:58:01;8.00;;;5.70;;
41755;SDS011;27435;48.480;9.258;2022-07-23T10:00:27;9.32;;;6.13;;
41755;SDS011;27435;48.480;9.258;2022-07-23T10:02:54;6.72;;;5.63;;
41755;SDS011;27435;48.480;9.258;2022-07-23T10:05:20;9.40;;;6.07;;
41755;SDS011;27435;48.480;9.258;2022-07-23T10:07:47;8.88;;;5.50;;
41755;SDS011;27435;48.480;9.258;2022-07-23T10:10:15;8.68;;;5.55;;
41755;SDS011;27435;48.480;9.258;2022-07-23T10:12:43;9.05;;;5.75;;
41755;SDS011;27435;48.480;9.258;2022-07-23T10:15:12;7.70;;;4.95;;
41755;SDS011;27435;48.480;9.258;2022-07-23T10:17:38;7.88;;;5.30;;
41755;SDS011;27435;48.480;9.258;2022-07-23T10:20:04;6.40;;;5.32;;
41755;SDS011;27435;48.480;9.258;2022-07-23T10:22:34;7.35;;;5.45;;
41755;SDS011;27435;48.480;9.258;2022-07-23T10:25:18;10.65;;;4.90;;
41755;SDS011;27435;48.480;9.258;2022-07-23T10:28:10;6.30;;;4.80;;
41755;SDS011;27435;48.480;9.258;2022-07-23T10:33:43;7.47;;;5.20;;
41755;SDS011;27435;48.480;9.258;2022-07-23T10:36:37;5.68;;;4.85;;
41755;SDS011;27435;48.480;9.258;2022-07-23T10:39:18;8.25;;;4.95;;
41755;SDS011;27435;48.480;9.258;2022-07-23T10:41:49;10.68;;;5.78;;
41755;SDS011;27435;48.480;9.258;2022-07-23T10:44:21;7.28;;;5.30;;
41755;SDS011;27435;48.480;9.258;2022-07-23T10:49:33;6.20;;;4.82;;
41755;SDS011;27435;48.480;9.258;2022-07-23T10:54:48;8.68;;;5.60;;
41755;SDS011;27435;48.480;9.258;2022-07-23T10:57:17;7.03;;;4.93;;
41755;SDS011;27435;48.480;9.258;2022-07-23T11:02:36;8.68;;;5.30;;
41755;SDS011;27435;48.480;9.258;2022-07-23T11:10:41;10.07;;;5.70;;
41755;SDS011;27435;48.480;9.258;2022-07-23T11:34:45;8.23;;;5.65;;
41755;SDS011;27435;48.480;9.258;2022-07-23T11:37:13;8.75;;;6.00;;
41755;SDS011;27435;48.480;9.258;2022-07-23T11:40:10;8.85;;;5.10;;
41755;SDS011;27435;48.480;9.258;2022-07-23T11:42:38;7.25;;;5.32;;
41755;SDS011;27435;48.480;9.258;2022-07-23T11:45:06;7.70;;;5.32;;
41755;SDS011;27435;48.480;9.258;2022-07-23T11:47:33;6.38;;;5.10;;
41755;SDS011;27435;48.480;9.258;2022-07-23T11:50:00;7.13;;;5.10;;
41755;SDS011;27435;48.480;9.258;2022-07-23T11:52:27;8.50;;;5.65;;
41755;SDS011;27435;48.480;9.258;2022-07-23T11:55:04;7.20;;;5.40;;
41755;SDS011;27435;48.480;9.258;2022-07-23T11:57:36;7.82;;;5.03;;
41755;SDS011;27435;48.480;9.258;2022-07-23T12:00:16;7.40;;;5.32;;
41755;SDS011;27435;48.480;9.258;2022-07-23T12:02:47;7.68;;;5.82;;
41755;SDS011;27435;48.480;9.258;2022-07-23T12:05:25;6.65;;;4.85;;
41755;SDS011;27435;48.480;9.258;2022-07-23T12:07:56;9.57;;;5.90;;
41755;SDS011;27435;48.480;9.258;2022-07-23T12:10:27;9.70;;;5.22;;
41755;SDS011;27435;48.480;9.258;2022-07-23T12:13:07;6.80;;;5.40;;
41755;SDS011;27435;48.480;9.258;2022-07-23T12:15:39;6.50;;;5.10;;
41755;SDS011;27435;48.480;9.258;2022-07-23T12:18:11;9.38;;;5.47;;
41755;SDS011;27435;48.480;9.258;2022-07-23T12:20:49;5.85;;;4.80;;
41755;SDS011;27435;48.480;9.258;2022-07-23T12:23:17;6.82;;;4.97;;
41755;SDS011;27435;48.480;9.258;2022-07-23T12:25:44;6.50;;;5.18;;
41755;SDS011;27435;48.480;9.258;2022-07-23T12:28:15;6.72;;;5.32;;
41755;SDS011;27435;48.480;9.258;2022-07-23T12:33:10;7.63;;;5.40;;
41755;SDS011;27435;48.480;9.258;2022-07-23T12:35:40;7.68;;;5.22;;
41755;SDS011;27435;48.480;9.258;2022-07-23T12:38:14;9.52;;;5.43;;
41755;SDS011;27435;48.480;9.258;2022-07-23T12:40:45;6.50;;;4.75;;
41755;SDS011;27435;48.480;9.258;2022-07-23T12:43:20;6.35;;;4.90;;
41755;SDS011;27435;48.480;9.258;2022-07-23T12:46:03;7.95;;;5.38;;
41755;SDS011;27435;48.480;9.258;2022-07-23T12:48:34;6.85;;;5.45;;
41755;SDS011;27435;48.480;9.258;2022-07-23T12:51:02;9.30;;;5.63;;
41755;SDS011;27435;48.480;9.258;2022-07-23T12:56:06;8.43;;;5.47;;
41755;SDS011;27435;48.480;9.258;2022-07-23T12:58:50;6.18;;;4.80;;
41755;SDS011;27435;48.480;9.258;2022-07-23T13:06:28;5.78;;;4.65;;
41755;SDS011;27435;48.480;9.258;2022-07-23T13:08:56;7.82;;;5.20;;
41755;SDS011;27435;48.480;9.258;2022-07-23T13:11:22;7.22;;;5.20;;
41755;SDS011;27435;48.480;9.258;2022-07-23T13:13:48;9.07;;;5.07;;
41755;SDS011;27435;48.480;9.258;2022-07-23T13:16:14;9.85;;;5.13;;
41755;SDS011;27435;48.480;9.258;2022-07-23T13:18:40;9.30;;;5.78;;
41755;SDS011;27435;48.480;9.258;2022-07-23T13:21:06;10.07;;;4.78;;
41755;SDS011;27435;48.480;9.258;2022-07-23T13:23:33;5.82;;;5.18;;
41755;SDS011;27435;48.480;9.258;2022-07-23T13:25:59;6.90;;;5.22;;
41755;SDS011;27435;48.480;9.258;2022-07-23T13:28:24;9.38;;;5.00;;
41755;SDS011;27435;48.480;9.258;2022-07-23T13:30:50;7.90;;;5.60;;
41755;SDS011;27435;48.480;9.258;2022-07-23T13:33:21;8.35;;;5.75;;
41755;SDS011;27435;48.480;9.258;2022-07-23T13:35:48;6.85;;;4.82;;
41755;SDS011;27435;48.480;9.258;2022-07-23T13:38:15;5.90;;;4.72;;
41755;SDS011;27435;48.480;9.258;2022-07-23T13:40:42;8.15;;;4.85;;
41755;SDS011;27435;48.480;9.258;2022-07-23T13:43:10;7.07;;;5.07;;
41755;SDS011;27435;48.480;9.258;2022-07-23T13:45:37;8.15;;;4.82;;
41755;SDS011;27435;48.480;9.258;2022-07-23T13:48:05;6.22;;;4.93;;
41755;SDS011;27435;48.480;9.258;2022-07-23T13:50:31;8.30;;;4.53;;
41755;SDS011;27435;48.480;9.258;2022-07-23T13:53:00;8.68;;;5.10;;
41755;SDS011;27435;48.480;9.258;2022-07-23T13:55:27;6.57;;;4.55;;
41755;SDS011;27435;48.480;9.258;2022-07-23T13:57:52;8.82;;;4.63;;
41755;SDS011;27435;48.480;9.258;2022-07-23T14:00:18;7.45;;;4.80;;
41755;SDS011;27435;48.480;9.258;2022-07-23T14:02:44;7.20;;;4.53;;
41755;SDS011;27435;48.480;9.258;2022-07-23T14:05:10;6.88;;;4.65;;
41755;SDS011;27435;48.480;9.258;2022-07-23T14:07:36;8.10;;;4.47;;
41755;SDS011;27435;48.480;9.258;2022-07-23T14:10:03;5.78;;;4.68;;
41755;SDS011;27435;48.480;9.258;2022-07-23T14:12:30;7.18;;;4.07;;
41755;SDS011;27435;48.480;9.258;2022-07-23T14:14:56;7.47;;;4.60;;
41755;SDS011;27435;48.480;9.258;2022-07-23T14:17:22;7.55;;;4.35;;
41755;SDS011;27435;48.480;9.258;2022-07-23T14:19:48;7.05;;;4.28;;
41755;SDS011;27435;48.480;9.258;2022-07-23T14:22:14;6.38;;;4.82;;
41755;SDS011;27435;48.480;9.258;2022-07-23T14:24:39;9.95;;;5.38;;
41755;SDS011;27435;48.480;9.258;2022-07-23T14:27:05;10.45;;;5.35;;
41755;SDS011;27435;48.480;9.258;2022-07-23T14:29:31;6.40;;;4.78;;
41755;SDS011;27435;48.480;9.258;2022-07-23T14:31:57;8.00;;;4.97;;
41755;SDS011;27435;48.480;9.258;2022-07-23T14:34:23;6.00;;;4.72;;
41755;SDS011;27435;48.480;9.258;2022-07-23T14:36:50;7.00;;;5.05;;
41755;SDS011;27435;48.480;9.258;2022-07-23T14:39:16;8.50;;;4.50;;
41755;SDS011;27435;48.480;9.258;2022-07-23T14:41:41;10.77;;;4.88;;
41755;SDS011;27435;48.480;9.258;2022-07-23T14:44:07;7.30;;;4.82;;
41755;SDS011;27435;48.480;9.258;2022-07-23T14:46:32;6.07;;;4.88;;
41755;SDS011;27435;48.480;9.258;2022-07-23T14:48:58;6.13;;;4.60;;
41755;SDS011;27435;48.480;9.258;2022-07-23T14:51:24;8.77;;;4.70;;
41755;SDS011;27435;48.480;9.258;2022-07-23T14:53:49;6.30;;;4.32;;
41755;SDS011;27435;48.480;9.258;2022-07-23T14:56:16;6.82;;;4.80;;
41755;SDS011;27435;48.480;9.258;2022-07-23T14:58:42;6.20;;;4.30;;
41755;SDS011;27435;48.480;9.258;2022-07-23T15:01:08;6.97;;;4.68;;
41755;SDS011;27435;48.480;9.258;2022-07-23T15:03:33;7.78;;;4.72;;
41755;SDS011;27435;48.480;9.258;2022-07-23T15:05:59;5.60;;;4.22;;
41755;SDS011;27435;48.480;9.258;2022-07-23T15:08:25;8.90;;;4.75;;
41755;SDS011;27435;48.480;9.258;2022-07-23T15:10:50;6.88;;;4.78;;
41755;SDS011;27435;48.480;9.258;2022-07-23T15:13:16;8.80;;;4.63;;
41755;SDS011;27435;48.480;9.258;2022-07-23T15:15:42;5.57;;;4.55;;
41755;SDS011;27435;48.480;9.258;2022-07-23T15:18:09;6.93;;;4.78;;
41755;SDS011;27435;48.480;9.258;2022-07-23T15:20:35;5.82;;;4.50;;
41755;SDS011;27435;48.480;9.258;2022-07-23T15:23:02;6.50;;;4.35;;
41755;SDS011;27435;48.480;9.258;2022-07-23T15:25:28;7.93;;;4.95;;
41755;SDS011;27435;48.480;9.258;2022-07-23T15:27:54;5.53;;;4.80;;
41755;SDS011;27435;48.480;9.258;2022-07-23T15:30:19;6.35;;;4.10;;
41755;SDS011;27435;48.480;9.258;2022-07-23T15:32:45;5.50;;;4.30;;
41755;SDS011;27435;48.480;9.258;2022-07-23T15:35:10;5.78;;;4.22;;
41755;SDS011;27435;48.480;9.258;2022-07-23T15:37:36;7.07;;;4.38;;
41755;SDS011;27435;48.480;9.258;2022-07-23T15:40:02;7.95;;;4.57;;
41755;SDS011;27435;48.480;9.258;2022-07-23T15:42:31;6.38;;;4.65;;